Time;durP1;ratioP1;P1;durP2;ratioP2;P2;SDS_P1;SDS_P2;PMS_P1;PMS_P2;Temp;Humidity;BMP_temperature;BMP_pressure;BME280_temperature;BME280_humidity;BME280_pressure;Samples;Min_cycle;Max_cycle;Signal;HPM_P1;HPM_P2
2022/10/15 00:00:36;;;;;;;5.95;4.05;;;12.90;99.90;;;;;;5098000;28;20099;-81
2022/10/15 00:03:02;;;;;;;6.53;3.97;;;12.80;99.90;;;;;;5097942;28;20024;-80
2022/10/15 00:05:28;;;;;;;10.55;6.60;;;12.80;99.90;;;;;;5097715;28;20021;-81
2022/10/15 00:07:54;;;;;;;10.88;5.68;;;12.80;99.90;;;;;;5113888;28;20373;-80
2022/10/15 00:10:20;;;;;;;8.63;5.90;;;12.80;99.90;;;;;;5097832;28;20040;-80
2022/10/15 00:12:46;;;;;;;5.10;4.18;;;12.80;99.90;;;;;;5097214;28;20467;-80
2022/10/15 00:15:12;;;;;;;8.27;4.13;;;12.70;99.90;;;;;;5097770;28;20020;-81
2022/10/15 00:17:38;;;;;;;7.00;4.05;;;12.70;99.90;;;;;;5097717;28;20016;-81
2022/10/15 00:20:09;;;;;;;4.45;3.85;;;12.60;99.90;;;;;;5097604;28;20024;-81
2022/10/15 00:22:36;;;;;;;4.30;2.97;;;12.70;99.90;;;;;;5113235;28;20032;-81
2022/10/15 00:25:03;;;;;;;4.50;3.30;;;12.70;99.90;;;;;;5097360;28;20028;-80
2022/10/15 00:27:29;;;;;;;4.00;3.40;;;12.60;99.90;;;;;;5112970;28;20028;-81
2022/10/15 00:29:54;;;;;;;4.65;3.58;;;12.60;99.90;;;;;;5097263;28;20020;-81
2022/10/15 00:32:20;;;;;;;8.35;4.07;;;12.50;99.90;;;;;;5097899;28;20089;-80
2022/10/15 00:34:46;;;;;;;11.10;4.13;;;12.50;99.90;;;;;;5097203;28;20012;-80
2022/10/15 00:37:12;;;;;;;5.78;3.42;;;12.50;99.90;;;;;;5113097;28;20052;-81
2022/10/15 00:39:38;;;;;;;5.20;3.60;;;12.60;99.90;;;;;;5097354;28;20028;-81
2022/10/15 00:42:04;;;;;;;6.03;3.90;;;12.50;99.90;;;;;;5102552;28;20028;-80
2022/10/15 00:44:30;;;;;;;8.60;3.90;;;12.50;99.90;;;;;;5103801;28;20012;-79
2022/10/15 00:47:03;;;;;;;9.73;3.90;;;12.60;99.90;;;;;;5097448;28;20027;-79
2022/10/15 00:49:38;;;;;;;6.97;3.63;;;12.50;99.90;;;;;;5103402;28;20024;-80
2022/10/15 00:52:17;;;;;;;4.97;3.05;;;12.50;99.90;;;;;;5097066;28;20024;-80
2022/10/15 00:54:50;;;;;;;4.25;3.13;;;12.40;99.90;;;;;;5097328;28;20099;-81
2022/10/15 00:57:16;;;;;;;6.13;3.53;;;12.40;99.90;;;;;;5098011;28;20537;-80
2022/10/15 00:59:47;;;;;;;8.82;4.13;;;12.40;99.90;;;;;;5098511;28;20430;-80
2022/10/15 01:02:14;;;;;;;7.65;3.63;;;12.40;99.90;;;;;;5097181;28;20044;-80
2022/10/15 01:04:41;;;;;;;7.72;3.75;;;12.40;99.90;;;;;;5095814;28;20025;-80
2022/10/15 01:07:07;;;;;;;4.57;3.50;;;12.40;99.90;;;;;;5097287;28;20024;-80
2022/10/15 01:09:34;;;;;;;3.63;3.22;;;12.40;99.90;;;;;;5096993;28;20019;-80
2022/10/15 01:12:01;;;;;;;8.13;3.78;;;12.30;99.90;;;;;;5112370;28;20036;-80
2022/10/15 01:14:38;;;;;;;10.30;3.53;;;12.30;99.90;;;;;;5114484;28;20404;-80
2022/10/15 01:17:09;;;;;;;4.78;3.28;;;12.40;99.90;;;;;;5100425;28;20111;-80
2022/10/15 01:19:50;;;;;;;5.15;3.53;;;12.30;99.90;;;;;;5095490;28;20024;-80
2022/10/15 01:22:48;;;;;;;5.22;3.75;;;12.30;99.90;;;;;;5097017;28;20024;-80
2022/10/15 01:25:23;;;;;;;5.20;3.92;;;12.30;99.90;;;;;;5111414;28;20130;-80
2022/10/15 01:28:17;;;;;;;7.07;3.78;;;12.30;99.90;;;;;;5096621;28;20035;-80
2022/10/15 01:30:48;;;;;;;7.20;3.60;;;12.30;99.90;;;;;;5097170;28;20048;-80
2022/10/15 01:33:24;;;;;;;4.85;3.25;;;12.30;99.90;;;;;;5112370;28;20097;-80
2022/10/15 01:36:23;;;;;;;5.35;3.53;;;12.30;99.90;;;;;;5096770;28;20028;-80
2022/10/15 01:38:59;;;;;;;5.22;3.50;;;12.20;99.90;;;;;;5081741;28;20035;-80
2022/10/15 01:41:48;;;;;;;5.50;3.45;;;12.20;99.90;;;;;;5096571;28;20496;-80
2022/10/15 01:44:24;;;;;;;6.38;3.30;;;12.30;99.90;;;;;;5096913;28;20032;-79
2022/10/15 01:46:57;;;;;;;17.70;3.88;;;12.20;99.90;;;;;;5096524;28;20043;-80
2022/10/15 01:49:28;;;;;;;5.60;3.35;;;12.20;99.90;;;;;;5104980;28;20023;-80
2022/10/15 01:51:55;;;;;;;8.48;3.67;;;12.20;99.90;;;;;;5096553;28;20024;-80
2022/10/15 01:54:25;;;;;;;4.63;3.50;;;12.10;99.90;;;;;;5097904;28;20103;-80
2022/10/15 01:56:53;;;;;;;9.90;4.23;;;12.10;99.90;;;;;;5105088;28;20027;-80
2022/10/15 01:59:22;;;;;;;6.55;4.07;;;12.10;99.90;;;;;;5105088;28;20488;-80
2022/10/15 02:01:48;;;;;;;3.80;3.28;;;12.10;99.90;;;;;;5110153;28;20020;-80
2022/10/15 02:04:19;;;;;;;5.22;3.58;;;12.10;99.90;;;;;;5101432;28;20023;-80
2022/10/15 02:06:46;;;;;;;;;;;12.10;99.90;;;;;;5100893;28;20537;-79
2022/10/15 02:09:37;;;;;;;6.53;3.60;;;12.10;99.90;;;;;;5115793;28;19904;-80
2022/10/15 02:12:21;;;;;;;8.05;4.07;;;12.00;99.90;;;;;;5099703;28;20114;-80
2022/10/15 02:15:10;;;;;;;5.03;3.67;;;12.00;99.90;;;;;;5097136;28;20020;-79
2022/10/15 02:18:01;;;;;;;4.45;3.38;;;12.00;99.90;;;;;;5099836;28;20504;-80
2022/10/15 02:20:52;;;;;;;4.00;3.17;;;12.00;99.90;;;;;;5099884;28;20469;-80
2022/10/15 02:23:18;;;;;;;8.18;3.67;;;11.90;99.90;;;;;;5112472;28;20058;-80
2022/10/15 02:25:46;;;;;;;5.28;3.70;;;11.90;99.90;;;;;;5099232;28;20106;-79
2022/10/15 02:28:15;;;;;;;6.50;3.42;;;11.90;99.90;;;;;;5099750;28;20024;-80
2022/10/15 02:30:44;;;;;;;4.95;3.63;;;11.90;99.90;;;;;;5103971;28;20024;-79
2022/10/15 02:33:10;;;;;;;4.68;3.83;;;11.80;99.90;;;;;;5098235;28;20143;-80
2022/10/15 02:35:37;;;;;;;5.13;3.38;;;11.80;99.90;;;;;;5098358;28;20024;-80
2022/10/15 02:38:06;;;;;;;5.15;3.55;;;11.80;99.90;;;;;;5099516;28;20430;-79
2022/10/15 02:40:35;;;;;;;6.85;3.55;;;11.80;99.90;;;;;;5099925;28;20092;-80
2022/10/15 02:43:05;;;;;;;11.68;3.95;;;11.70;99.90;;;;;;5115147;28;20020;-79
2022/10/15 02:45:31;;;;;;;6.03;3.90;;;11.80;99.90;;;;;;5088522;28;20020;-79
2022/10/15 02:47:57;;;;;;;4.20;3.70;;;11.70;99.90;;;;;;5099543;28;20374;-79
2022/10/15 02:50:23;;;;;;;9.48;4.50;;;11.70;99.90;;;;;;5115082;28;20404;-79
2022/10/15 02:52:48;;;;;;;5.15;4.20;;;11.70;99.90;;;;;;5099599;28;20016;-79
2022/10/15 02:55:14;;;;;;;6.15;3.83;;;11.70;99.90;;;;;;5114974;28;20031;-80
2022/10/15 02:57:40;;;;;;;4.85;3.78;;;11.70;99.90;;;;;;5099276;28;20434;-80
2022/10/15 03:00:07;;;;;;;5.63;3.63;;;11.60;99.90;;;;;;5099217;28;20024;-78
2022/10/15 03:02:32;;;;;;;4.63;3.50;;;11.70;99.90;;;;;;5098843;28;20422;-79
2022/10/15 03:04:58;;;;;;;5.43;3.70;;;11.70;99.90;;;;;;5117411;27;20078;-79
2022/10/15 03:07:24;;;;;;;4.40;3.65;;;11.60;99.90;;;;;;5098084;28;20020;-79
2022/10/15 03:09:50;;;;;;;7.30;3.58;;;11.60;99.90;;;;;;5114277;28;20051;-78
2022/10/15 03:12:16;;;;;;;5.15;3.85;;;11.50;99.90;;;;;;5097062;28;20028;-79
2022/10/15 03:14:41;;;;;;;4.57;3.72;;;11.50;99.90;;;;;;5123399;27;20016;-79
2022/10/15 03:17:07;;;;;;;6.05;4.00;;;11.50;99.90;;;;;;5094047;28;20095;-79
2022/10/15 03:19:33;;;;;;;5.38;3.80;;;11.40;99.90;;;;;;5097457;28;20013;-79
2022/10/15 03:21:59;;;;;;;6.22;3.63;;;11.50;99.90;;;;;;5098930;28;20492;-79
2022/10/15 03:24:24;;;;;;;8.13;3.92;;;11.50;99.90;;;;;;5114338;28;20395;-79
2022/10/15 03:26:50;;;;;;;8.07;3.92;;;11.50;99.90;;;;;;5098407;28;20027;-79
2022/10/15 03:29:16;;;;;;;4.78;3.60;;;11.50;99.90;;;;;;5098678;28;20024;-79
2022/10/15 03:31:42;;;;;;;6.72;3.70;;;11.40;99.90;;;;;;5098808;28;20418;-79
2022/10/15 03:34:08;;;;;;;5.82;3.35;;;11.40;99.90;;;;;;5098595;28;20110;-79
2022/10/15 03:36:34;;;;;;;6.78;3.47;;;11.40;99.90;;;;;;5098296;28;20012;-79
2022/10/15 03:38:59;;;;;;;4.80;3.80;;;11.30;99.90;;;;;;5114440;28;20062;-79
2022/10/15 03:41:25;;;;;;;5.40;3.95;;;11.40;99.90;;;;;;5098061;28;20017;-79
2022/10/15 03:43:51;;;;;;;5.65;3.70;;;11.40;99.90;;;;;;5098733;28;20023;-79
2022/10/15 03:46:17;;;;;;;5.47;3.53;;;11.30;99.90;;;;;;5098042;28;20027;-79
2022/10/15 03:48:43;;;;;;;4.50;3.45;;;11.30;99.90;;;;;;5098562;28;20434;-78
2022/10/15 03:51:08;;;;;;;8.48;3.63;;;11.30;99.90;;;;;;5098126;28;20096;-79
2022/10/15 03:53:34;;;;;;;6.97;3.30;;;11.20;99.90;;;;;;5098165;28;20026;-79
2022/10/15 03:56:04;;;;;;;5.35;3.75;;;11.20;99.90;;;;;;5098035;28;20042;-78
2022/10/15 03:58:30;;;;;;;6.07;4.43;;;11.20;99.90;;;;;;5096568;28;20027;-78
2022/10/15 04:00:56;;;;;;;4.90;4.13;;;11.20;99.90;;;;;;5113833;28;20511;-79
2022/10/15 04:03:22;;;;;;;4.63;3.25;;;11.10;99.90;;;;;;5097961;28;20392;-79
2022/10/15 04:05:54;;;;;;;4.10;3.70;;;11.10;99.90;;;;;;5116794;27;20024;-78
2022/10/15 04:08:19;;;;;;;5.85;3.80;;;11.10;99.90;;;;;;5097845;28;20410;-79
2022/10/15 04:10:45;;;;;;;5.00;4.03;;;11.10;99.90;;;;;;5097867;28;20059;-78
2022/10/15 04:13:11;;;;;;;9.80;3.50;;;11.10;99.90;;;;;;5097674;28;20082;-79
2022/10/15 04:15:40;;;;;;;5.30;4.43;;;11.10;99.90;;;;;;5097933;28;20055;-78
2022/10/15 04:18:06;;;;;;;4.80;3.72;;;11.10;99.90;;;;;;5097175;28;20024;-78
2022/10/15 04:20:32;;;;;;;4.72;3.80;;;11.00;99.90;;;;;;5097671;28;20016;-78
2022/10/15 04:22:58;;;;;;;6.90;3.70;;;11.00;99.90;;;;;;5097522;28;20077;-78
2022/10/15 04:25:23;;;;;;;5.55;3.30;;;11.00;99.90;;;;;;5097475;28;20024;-79
2022/10/15 04:27:49;;;;;;;6.40;3.75;;;11.00;99.90;;;;;;5097314;28;20423;-78
2022/10/15 04:30:15;;;;;;;5.63;3.92;;;10.90;99.90;;;;;;5097675;28;20031;-79
2022/10/15 04:32:41;;;;;;;8.57;3.97;;;10.90;99.90;;;;;;5097398;28;20030;-78
2022/10/15 04:35:07;;;;;;;5.38;3.60;;;10.90;99.90;;;;;;5097389;28;20203;-78
2022/10/15 04:37:33;;;;;;;4.93;3.92;;;10.90;99.90;;;;;;5097374;28;20082;-79
2022/10/15 04:39:59;;;;;;;4.82;3.53;;;10.90;99.90;;;;;;5093769;28;20028;-79
2022/10/15 04:42:28;;;;;;;4.90;3.67;;;10.90;99.90;;;;;;5096180;28;21315;-78
2022/10/15 04:44:54;;;;;;;8.85;4.47;;;10.90;99.90;;;;;;5097087;28;20020;-78
2022/10/15 04:47:19;;;;;;;7.60;4.00;;;10.90;99.90;;;;;;5097355;28;20035;-78
2022/10/15 04:49:45;;;;;;;6.70;4.35;;;10.90;99.90;;;;;;5097041;28;20484;-78
2022/10/15 04:52:11;;;;;;;4.78;3.80;;;10.90;99.90;;;;;;5097377;28;20033;-79
2022/10/15 04:54:37;;;;;;;5.05;4.53;;;10.90;99.90;;;;;;5097129;28;20024;-78
2022/10/15 04:57:04;;;;;;;8.15;3.72;;;10.80;99.90;;;;;;5097096;28;20028;-78
2022/10/15 04:59:29;;;;;;;5.68;3.60;;;10.90;99.90;;;;;;5112596;28;20369;-79
2022/10/15 05:01:55;;;;;;;6.88;3.90;;;10.80;99.90;;;;;;5097193;28;20034;-78
2022/10/15 05:04:21;;;;;;;10.02;4.05;;;10.80;99.90;;;;;;5100592;28;20020;-78
2022/10/15 05:06:47;;;;;;;4.95;3.80;;;10.90;99.90;;;;;;5106899;28;20031;-79
2022/10/15 05:09:13;;;;;;;5.22;3.90;;;10.90;99.90;;;;;;5112245;28;20095;-79
2022/10/15 05:11:39;;;;;;;6.00;4.15;;;10.90;99.90;;;;;;5113451;28;20047;-79
2022/10/15 05:14:05;;;;;;;9.80;4.50;;;10.90;99.90;;;;;;5109018;28;20110;-78
2022/10/15 05:16:32;;;;;;;4.93;4.30;;;10.90;99.90;;;;;;5115181;28;20480;-79
2022/10/15 05:19:03;;;;;;;3.83;3.45;;;10.90;99.90;;;;;;5111791;28;20024;-79
2022/10/15 05:21:30;;;;;;;4.38;3.65;;;10.80;99.90;;;;;;5113876;28;20016;-79
2022/10/15 05:23:57;;;;;;;5.93;3.88;;;10.80;99.90;;;;;;5126699;28;20019;-78
2022/10/15 05:26:25;;;;;;;6.70;3.90;;;10.80;99.90;;;;;;5115700;28;20098;-79
2022/10/15 05:28:51;;;;;;;8.85;3.83;;;10.70;99.90;;;;;;5115492;28;20011;-78
2022/10/15 05:31:21;;;;;;;4.28;3.88;;;10.80;99.90;;;;;;5116881;28;20552;-79
2022/10/15 05:33:48;;;;;;;5.40;4.30;;;10.70;99.90;;;;;;5102065;28;20114;-79
2022/10/15 05:36:19;;;;;;;6.35;3.75;;;10.70;99.90;;;;;;5113686;28;20257;-79
2022/10/15 05:38:58;;;;;;;6.35;4.28;;;10.70;99.90;;;;;;5134257;27;20054;-79
2022/10/15 05:41:25;;;;;;;4.68;3.15;;;10.60;99.90;;;;;;5117076;28;20023;-79
2022/10/15 05:43:53;;;;;;;9.05;3.95;;;10.60;99.90;;;;;;5133512;27;20110;-79
2022/10/15 05:46:19;;;;;;;4.13;3.63;;;10.60;99.90;;;;;;5116209;28;20065;-79
2022/10/15 05:48:50;;;;;;;5.15;4.10;;;10.60;99.90;;;;;;5119687;28;20098;-79
2022/10/15 05:51:16;;;;;;;5.07;4.30;;;10.60;99.90;;;;;;5117624;28;20097;-78
2022/10/15 05:53:42;;;;;;;5.82;4.18;;;10.60;99.90;;;;;;5111005;28;20481;-78
2022/10/15 05:56:09;;;;;;;9.27;4.10;;;10.60;99.90;;;;;;5133743;27;20032;-78
2022/10/15 05:58:35;;;;;;;5.90;3.80;;;10.60;99.90;;;;;;5101508;28;20027;-78
2022/10/15 06:01:03;;;;;;;5.03;3.95;;;10.50;99.90;;;;;;5101401;28;20445;-79
2022/10/15 06:03:29;;;;;;;6.03;4.20;;;10.50;99.90;;;;;;5117344;28;20028;-79
2022/10/15 06:05:55;;;;;;;6.40;4.40;;;10.40;99.90;;;;;;5101155;28;20020;-79
2022/10/15 06:08:21;;;;;;;7.53;4.72;;;10.40;99.90;;;;;;5122219;27;20047;-79
2022/10/15 06:10:47;;;;;;;6.40;4.78;;;10.40;99.90;;;;;;5100841;28;20157;-79
2022/10/15 06:13:14;;;;;;;11.10;6.05;;;10.30;99.90;;;;;;5116476;28;20051;-79
2022/10/15 06:15:42;;;;;;;17.13;6.85;;;10.30;99.90;;;;;;5116559;28;20102;-77
2022/10/15 06:18:09;;;;;;;7.80;5.82;;;10.30;99.90;;;;;;5108595;28;20066;-79
2022/10/15 06:20:36;;;;;;;11.70;7.40;;;10.30;99.90;;;;;;5115066;28;20020;-79
2022/10/15 06:23:04;;;;;;;13.80;7.30;;;10.30;99.90;;;;;;5106675;28;20026;-79
2022/10/15 06:25:31;;;;;;;12.52;9.40;;;10.30;99.90;;;;;;5110283;28;20074;-78
2022/10/15 06:28:06;;;;;;;16.17;9.30;;;10.40;99.90;;;;;;5100598;28;20023;-79
2022/10/15 06:30:32;;;;;;;11.27;7.93;;;10.50;99.90;;;;;;5099378;28;20027;-79
2022/10/15 06:32:58;;;;;;;16.02;7.40;;;10.50;99.90;;;;;;5126569;27;20095;-79
2022/10/15 06:35:25;;;;;;;13.95;7.60;;;10.50;99.90;;;;;;5100839;28;20017;-80
2022/10/15 06:37:52;;;;;;;12.13;7.85;;;10.50;99.90;;;;;;5100579;28;20056;-79
2022/10/15 06:40:18;;;;;;;9.63;7.80;;;10.50;99.90;;;;;;5100078;28;20077;-79
2022/10/15 06:42:44;;;;;;;11.98;7.60;;;10.60;99.90;;;;;;5100174;28;20047;-79
2022/10/15 06:45:10;;;;;;;14.77;9.93;;;10.60;99.90;;;;;;5100258;28;20027;-79
2022/10/15 06:47:39;;;;;;;18.08;11.60;;;10.60;99.90;;;;;;5100463;28;20028;-79
2022/10/15 06:50:05;;;;;;;11.55;10.05;;;10.70;99.90;;;;;;5100797;28;20034;-83
2022/10/15 06:52:32;;;;;;;13.18;8.77;;;10.70;99.90;;;;;;5116745;28;20020;-81
2022/10/15 06:54:57;;;;;;;11.10;8.07;;;10.80;99.90;;;;;;5116025;28;20016;-82
2022/10/15 06:57:26;;;;;;;11.15;8.73;;;10.80;99.90;;;;;;5108912;28;20080;-84
2022/10/15 06:59:52;;;;;;;12.07;9.95;;;10.90;99.90;;;;;;5098766;28;20074;-78
2022/10/15 07:02:18;;;;;;;9.88;7.63;;;11.00;99.90;;;;;;5114992;28;20032;-79
2022/10/15 07:04:45;;;;;;;11.35;7.90;;;11.00;99.90;;;;;;5117203;27;20020;-79
2022/10/15 07:07:11;;;;;;;7.13;6.03;;;11.10;99.90;;;;;;5111710;28;20020;-79
2022/10/15 07:09:37;;;;;;;10.65;5.57;;;11.10;99.90;;;;;;5107652;28;20020;-79
2022/10/15 07:12:04;;;;;;;9.43;5.57;;;11.20;99.90;;;;;;5098432;28;20426;-79
2022/10/15 07:14:30;;;;;;;7.80;5.03;;;11.30;99.90;;;;;;5098711;28;20368;-79
2022/10/15 07:16:56;;;;;;;7.43;6.05;;;11.30;99.90;;;;;;5114806;28;20027;-79
2022/10/15 07:19:22;;;;;;;6.15;5.43;;;11.40;99.90;;;;;;5097882;28;20046;-79
2022/10/15 07:21:48;;;;;;;8.07;5.55;;;11.50;99.90;;;;;;5098557;28;20505;-79
2022/10/15 07:24:13;;;;;;;9.68;5.72;;;11.60;99.90;;;;;;5098610;28;20032;-78
2022/10/15 07:26:39;;;;;;;5.65;5.05;;;11.70;99.90;;;;;;5095343;28;20085;-78
2022/10/15 07:29:05;;;;;;;10.15;6.25;;;11.90;99.90;;;;;;5097957;28;20091;-78
2022/10/15 07:31:31;;;;;;;10.60;5.10;;;12.00;99.90;;;;;;5098271;28;20024;-78
2022/10/15 07:33:57;;;;;;;13.18;5.68;;;12.10;99.90;;;;;;5097553;28;20111;-78
2022/10/15 07:36:25;;;;;;;20.65;6.10;;;12.20;99.90;;;;;;5114056;28;20062;-78
2022/10/15 07:38:50;;;;;;;9.00;4.88;;;12.40;99.90;;;;;;5114343;28;20101;-79
2022/10/15 07:41:16;;;;;;;7.80;5.15;;;12.50;99.90;;;;;;5098240;28;20020;-79
2022/10/15 07:43:43;;;;;;;9.30;4.82;;;12.50;99.90;;;;;;5097112;28;20126;-80
2022/10/15 07:46:09;;;;;;;11.60;4.90;;;12.70;99.90;;;;;;5098264;28;20095;-79
2022/10/15 07:48:35;;;;;;;11.00;4.90;;;12.70;99.90;;;;;;5098261;28;20534;-81
2022/10/15 07:51:04;;;;;;;8.00;4.97;;;12.80;99.90;;;;;;5113433;28;20020;-79
2022/10/15 07:53:30;;;;;;;8.30;4.00;;;12.90;99.90;;;;;;5113430;28;20388;-79
2022/10/15 07:56:06;;;;;;;12.27;5.47;;;13.00;99.90;;;;;;5098258;28;20044;-79
2022/10/15 07:58:33;;;;;;;12.90;4.70;;;13.10;99.90;;;;;;5113801;28;20111;-79
2022/10/15 08:01:03;;;;;;;6.85;4.57;;;13.10;99.90;;;;;;5098493;28;20028;-81
2022/10/15 08:03:29;;;;;;;11.07;6.05;;;13.30;99.90;;;;;;5115131;28;20873;-81
2022/10/15 08:05:55;;;;;;;20.42;8.45;;;13.40;99.90;;;;;;5099534;28;20028;-80
2022/10/15 08:08:22;;;;;;;46.22;16.83;;;13.50;99.90;;;;;;5099208;28;20023;-80
2022/10/15 08:10:48;;;;;;;28.95;13.27;;;13.50;99.90;;;;;;5098653;28;20044;-80
2022/10/15 08:13:14;;;;;;;41.47;15.90;;;13.60;99.90;;;;;;5097371;28;20016;-79
2022/10/15 08:15:40;;;;;;;35.20;16.42;;;13.70;99.90;;;;;;5113762;28;20031;-80
2022/10/15 08:18:06;;;;;;;44.35;18.92;;;13.80;99.90;;;;;;5099278;28;20469;-81
2022/10/15 08:20:32;;;;;;;46.20;25.73;;;13.80;99.90;;;;;;5098488;28;20480;-79
2022/10/15 08:22:58;;;;;;;32.65;15.95;;;13.90;99.90;;;;;;5097482;28;20474;-80
2022/10/15 08:25:24;;;;;;;29.27;13.63;;;14.00;99.90;;;;;;5096036;28;20432;-80
2022/10/15 08:27:52;;;;;;;22.38;12.63;;;14.10;99.90;;;;;;5097794;28;20024;-80
2022/10/15 08:30:18;;;;;;;24.15;10.40;;;14.30;99.90;;;;;;5097628;28;20529;-80
2022/10/15 08:32:44;;;;;;;7.72;4.82;;;14.40;99.90;;;;;;5096970;28;20028;-79
2022/10/15 08:35:10;;;;;;;10.63;4.47;;;14.50;99.90;;;;;;5097476;28;20023;-81
2022/10/15 08:37:36;;;;;;;5.47;3.40;;;14.60;99.90;;;;;;5096479;28;20035;-81
2022/10/15 08:40:03;;;;;;;6.95;3.35;;;14.60;99.90;;;;;;5113898;28;20102;-82
2022/10/15 08:42:36;;;;;;;6.30;3.58;;;14.80;99.90;;;;;;5113371;28;20031;-81
2022/10/15 08:45:09;;;;;;;7.10;3.83;;;14.90;99.90;;;;;;5096221;28;20150;-82
2022/10/15 08:47:44;;;;;;;5.65;3.33;;;15.10;99.90;;;;;;5097095;28;20020;-81
2022/10/15 08:50:25;;;;;;;5.70;2.78;;;15.30;99.90;;;;;;5097265;28;20095;-79
2022/10/15 08:52:51;;;;;;;;;;;15.50;99.90;;;;;;5098545;28;20027;-81
2022/10/15 08:55:20;;;;;;;4.47;2.90;;;15.60;99.90;;;;;;5096162;28;19912;-81
2022/10/15 08:57:54;;;;;;;3.65;2.53;;;15.70;99.90;;;;;;5095754;28;20499;-80
2022/10/15 09:00:26;;;;;;;4.30;2.60;;;15.80;99.90;;;;;;5096061;28;20407;-82
2022/10/15 09:03:03;;;;;;;2.85;2.50;;;15.90;99.90;;;;;;5095844;28;20028;-81
2022/10/15 09:05:43;;;;;;;4.03;2.40;;;16.00;99.90;;;;;;5097038;28;20024;-81
2022/10/15 09:08:47;;;;;;;4.13;2.43;;;16.00;99.90;;;;;;5085210;28;20498;-81
2022/10/15 09:11:28;;;;;;;4.75;3.13;;;16.00;99.90;;;;;;5054294;28;20060;-83
2022/10/15 09:13:54;;;;;;;3.40;2.67;;;16.10;99.90;;;;;;5090590;28;20501;-83
2022/10/15 09:16:36;;;;;;;4.28;2.47;;;16.20;99.90;;;;;;5095147;28;20054;-82
2022/10/15 09:19:05;;;;;;;3.50;2.08;;;16.30;99.90;;;;;;5095984;28;20028;-82
2022/10/15 09:21:34;;;;;;;4.88;2.40;;;16.60;99.90;;;;;;5097333;28;20107;-81
2022/10/15 09:24:01;;;;;;;4.53;2.30;;;16.80;99.90;;;;;;5097275;28;20032;-81
2022/10/15 09:26:46;;;;;;;4.85;2.50;;;17.00;99.90;;;;;;5112634;28;20020;-81
2022/10/15 09:29:28;;;;;;;4.43;2.05;;;17.30;99.90;;;;;;5096075;28;20105;-81
2022/10/15 09:32:11;;;;;;;5.60;3.00;;;17.30;99.90;;;;;;5095842;28;20027;-83
2022/10/15 09:34:46;;;;;;;2.63;2.15;;;17.50;99.90;;;;;;5097513;28;20020;-84
2022/10/15 09:37:44;;;;;;;4.57;2.22;;;17.50;99.90;;;;;;5096018;28;20468;-83
2022/10/15 09:40:27;;;;;;;5.50;2.38;;;17.70;99.90;;;;;;5095887;28;20020;-82
2022/10/15 09:42:55;;;;;;;3.28;1.90;;;17.90;99.90;;;;;;5097005;28;20073;-82
2022/10/15 09:45:24;;;;;;;7.38;2.20;;;18.00;99.90;;;;;;5095652;28;20024;-83
2022/10/15 09:47:51;;;;;;;3.75;2.25;;;18.10;99.90;;;;;;5095680;28;20021;-81
2022/10/15 09:50:17;;;;;;;3.25;2.05;;;18.30;99.90;;;;;;5095623;28;20016;-81
2022/10/15 09:53:17;;;;;;;4.80;2.45;;;18.50;99.90;;;;;;5095544;28;20373;-82
2022/10/15 09:56:12;;;;;;;7.85;2.40;;;18.60;99.90;;;;;;5085718;28;20085;-82
2022/10/15 09:58:54;;;;;;;5.93;2.28;;;18.70;99.90;;;;;;5095869;28;20490;-83
2022/10/15 10:01:23;;;;;;;6.53;2.85;;;18.90;99.90;;;;;;5096913;28;20523;-82
2022/10/15 10:04:09;;;;;;;4.20;2.50;;;19.10;99.90;;;;;;5095596;28;20407;-82
2022/10/15 10:06:50;;;;;;;5.55;2.60;;;19.20;99.90;;;;;;5095681;28;20029;-82
2022/10/15 10:09:38;;;;;;;5.10;2.17;;;19.30;99.90;;;;;;5096782;28;20031;-82
2022/10/15 10:12:19;;;;;;;3.65;2.65;;;19.40;99.90;;;;;;5065062;28;20079;-81
2022/10/15 10:14:56;;;;;;;12.38;2.83;;;19.40;99.90;;;;;;5096852;28;20361;-81
2022/10/15 10:17:24;;;;;;;4.32;2.47;;;19.50;99.90;;;;;;5100676;28;20032;-83
2022/10/15 10:20:08;;;;;;;5.68;2.70;;;19.60;99.90;;;;;;5100858;28;20020;-81
2022/10/15 10:22:52;;;;;;;5.68;2.60;;;19.60;99.90;;;;;;5101073;28;20020;-82
2022/10/15 10:25:30;;;;;;;3.50;2.03;;;19.70;99.90;;;;;;5108307;28;20038;-81
2022/10/15 10:28:03;;;;;;;4.40;2.20;;;19.90;99.90;;;;;;5107565;28;20020;-82
2022/10/15 10:30:53;;;;;;;5.20;2.65;;;20.00;99.90;;;;;;5128804;27;20028;-82
2022/10/15 10:33:38;;;;;;;4.80;2.45;;;20.10;99.90;;;;;;5108377;28;20034;-81
2022/10/15 10:36:06;;;;;;;6.05;2.22;;;20.20;99.90;;;;;;5099740;28;20518;-81
2022/10/15 10:38:39;;;;;;;3.35;2.35;;;20.30;99.90;;;;;;5115592;28;20039;-80
2022/10/15 10:41:08;;;;;;;5.47;2.70;;;20.20;99.90;;;;;;5091772;28;20076;-82
2022/10/15 10:43:52;;;;;;;4.68;2.80;;;20.30;99.90;;;;;;5115348;28;20050;-80
2022/10/15 10:46:21;;;;;;;5.82;2.97;;;20.30;99.90;;;;;;5094393;28;20488;-80
2022/10/15 10:48:52;;;;;;;5.50;2.72;;;20.30;99.90;;;;;;5115403;28;20043;-81
2022/10/15 10:51:23;;;;;;;5.97;3.03;;;20.40;99.90;;;;;;5110905;28;20561;-82
2022/10/15 10:54:04;;;;;;;5.95;2.78;;;20.50;99.90;;;;;;5098311;28;20028;-81
2022/10/15 10:56:33;;;;;;;7.53;3.15;;;20.60;99.90;;;;;;5115174;27;20131;-81
2022/10/15 10:59:12;;;;;;;4.10;2.20;;;20.70;99.90;;;;;;5098225;28;20503;-82
2022/10/15 11:01:38;;;;;;;5.35;2.60;;;20.70;99.90;;;;;;5087169;28;20384;-81
2022/10/15 11:04:09;;;;;;;4.55;2.67;;;20.80;99.90;;;;;;5099562;28;20019;-81
2022/10/15 11:06:40;;;;;;;4.78;3.10;;;20.90;99.90;;;;;;5114509;28;20024;-81
2022/10/15 11:09:11;;;;;;;5.88;2.22;;;21.10;99.90;;;;;;5099214;28;20027;-81
2022/10/15 11:11:55;;;;;;;7.03;2.72;;;21.20;99.90;;;;;;5097503;28;20339;-81
2022/10/15 11:14:27;;;;;;;7.72;2.45;;;21.20;99.90;;;;;;5114571;28;20032;-82
2022/10/15 11:17:16;;;;;;;14.52;2.60;;;21.30;99.90;;;;;;5090840;28;20658;-82
2022/10/15 11:20:14;;;;;;;6.35;2.60;;;21.40;99.90;;;;;;5098909;28;20024;-81
2022/10/15 11:23:01;;;;;;;4.80;2.63;;;21.50;99.90;;;;;;5126701;27;20130;-83
2022/10/15 11:25:40;;;;;;;12.68;3.17;;;21.60;99.90;;;;;;5095619;28;20499;-81
2022/10/15 11:28:41;;;;;;;5.85;2.85;;;21.70;99.90;;;;;;5098903;28;20032;-82
2022/10/15 11:31:18;;;;;;;10.40;5.22;;;21.80;99.90;;;;;;5131295;27;20127;-82
2022/10/15 11:34:04;;;;;;;4.15;2.70;;;21.90;99.90;;;;;;5097334;28;20025;-83
2022/10/15 11:36:48;;;;;;;7.88;5.18;;;22.00;99.90;;;;;;5098542;28;20020;-82
2022/10/15 11:39:26;;;;;;;8.32;3.58;;;22.00;99.90;;;;;;5088620;28;20446;-80
2022/10/15 11:42:07;;;;;;;7.15;2.72;;;22.10;99.90;;;;;;5117416;27;20029;-82
2022/10/15 11:45:07;;;;;;;6.78;3.25;;;22.10;99.90;;;;;;5098510;28;20024;-82
2022/10/15 11:47:54;;;;;;;13.18;2.92;;;22.20;99.90;;;;;;5098731;28;20486;-81
2022/10/15 11:50:33;;;;;;;14.27;3.35;;;22.20;99.90;;;;;;5098513;28;20024;-82
2022/10/15 11:53:18;;;;;;;7.20;2.30;;;22.20;99.90;;;;;;5098535;28;20052;-81
2022/10/15 11:56:11;;;;;;;4.47;2.85;;;22.30;99.90;;;;;;5098363;28;20030;-82
2022/10/15 11:58:42;;;;;;;7.18;2.92;;;22.20;99.90;;;;;;5098412;28;20024;-82
2022/10/15 12:01:28;;;;;;;4.30;2.20;;;22.40;99.90;;;;;;5096858;28;20484;-84
2022/10/15 12:04:10;;;;;;;4.72;2.50;;;22.40;99.90;;;;;;5098433;28;20034;-83
2022/10/15 12:06:41;;;;;;;3.40;2.55;;;22.50;99.90;;;;;;5098015;28;20504;-83
2022/10/15 12:09:19;;;;;;;6.05;2.60;;;22.50;99.90;;;;;;5097950;28;20034;-82
2022/10/15 12:11:59;;;;;;;6.82;2.67;;;22.50;99.90;;;;;;5097947;28;20044;-82
2022/10/15 12:15:02;;;;;;;4.65;2.80;;;22.60;99.90;;;;;;5097790;28;20020;-83
2022/10/15 12:17:49;;;;;;;14.88;2.88;;;22.70;99.90;;;;;;5097765;28;20028;-82
2022/10/15 12:20:18;;;;;;;4.65;2.55;;;22.80;99.90;;;;;;5123449;27;20039;-83
2022/10/15 12:23:00;;;;;;;6.60;3.20;;;22.80;99.90;;;;;;5097810;28;20158;-82
2022/10/15 12:25:35;;;;;;;4.32;2.85;;;22.90;99.90;;;;;;5111369;28;20075;-83
2022/10/15 12:28:14;;;;;;;4.32;2.70;;;23.00;99.90;;;;;;5110959;28;20102;-82
2022/10/15 12:30:42;;;;;;;6.20;3.20;;;23.00;99.90;;;;;;5097783;27;20426;-83
2022/10/15 12:33:34;;;;;;;5.40;2.92;;;23.00;99.90;;;;;;5109969;28;20034;-82
2022/10/15 12:36:27;;;;;;;7.13;3.10;;;23.10;99.90;;;;;;5055596;28;20058;-83
2022/10/15 12:39:20;;;;;;;4.35;2.90;;;23.10;99.90;;;;;;5112738;27;20032;-83
2022/10/15 12:41:47;;;;;;;6.55;3.10;;;23.20;99.90;;;;;;5122626;27;20035;-83
2022/10/15 12:44:34;;;;;;;3.58;2.60;;;23.20;99.90;;;;;;5097571;28;20031;-83
2022/10/15 12:47:00;;;;;;;7.43;3.40;;;23.20;99.90;;;;;;5112922;28;20519;-83
2022/10/15 12:49:26;;;;;;;3.83;2.67;;;23.30;99.90;;;;;;5097363;28;20027;-84
2022/10/15 12:51:53;;;;;;;4.47;2.78;;;23.40;99.90;;;;;;5095939;28;20050;-84
2022/10/15 12:54:38;;;;;;;6.15;3.13;;;23.40;99.90;;;;;;5097237;28;20024;-83
2022/10/15 12:57:29;;;;;;;5.25;3.55;;;23.50;99.90;;;;;;5097152;28;20017;-84
2022/10/15 13:00:00;;;;;;;5.43;3.10;;;23.50;99.90;;;;;;5085865;28;20455;-83
2022/10/15 13:02:42;;;;;;;7.97;3.10;;;23.50;99.90;;;;;;5113577;28;20027;-84
2022/10/15 13:05:26;;;;;;;6.68;3.70;;;23.60;99.90;;;;;;5097332;28;20373;-82
2022/10/15 13:07:54;;;;;;;7.57;3.58;;;23.70;99.90;;;;;;5096165;28;20016;-85